Time;durP1;ratioP1;P1;durP2;ratioP2;P2;SDS_P1;SDS_P2;PMS_P1;PMS_P2;Temp;Humidity;BMP_temperature;BMP_pressure;BME280_temperature;BME280_humidity;BME280_pressure;Samples;Min_cycle;Max_cycle;Signal;HPM_P1;HPM_P2
2022/10/06 00:01:54;;;;;;;0.85;0.85;;;;;;;10.19;83.95;100639.72;5094524;28;20044;-65
2022/10/06 00:04:22;;;;;;;1.30;1.20;;;;;;;10.18;83.98;100641.41;5094868;28;20044;-65
2022/10/06 00:06:51;;;;;;;0.60;0.60;;;;;;;10.19;84.37;100643.16;5094522;28;20122;-65
2022/10/06 00:09:20;;;;;;;1.20;1.05;;;;;;;10.15;83.75;100646.47;5094027;28;20047;-65
2022/10/06 00:11:48;;;;;;;0.95;0.95;;;;;;;10.12;83.86;100643.03;5094350;28;20032;-65
2022/10/06 00:14:18;;;;;;;0.60;0.60;;;;;;;10.11;83.93;100644.66;5094449;28;20040;-65
2022/10/06 00:16:47;;;;;;;1.55;1.45;;;;;;;10.09;83.79;100646.34;5094243;28;20085;-65
2022/10/06 00:19:16;;;;;;;1.60;1.50;;;;;;;10.10;84.28;100648.06;5094285;28;20039;-65
2022/10/06 00:21:45;;;;;;;0.77;0.73;;;;;;;10.10;84.14;100648.06;5094451;28;20036;-65
2022/10/06 00:24:13;;;;;;;1.98;1.33;;;;;;;10.12;84.79;100643.88;5094476;28;20040;-65
2022/10/06 00:26:42;;;;;;;1.58;1.48;;;;;;;10.09;84.41;100646.34;5094483;28;20047;-65
2022/10/06 00:29:12;;;;;;;2.67;1.75;;;;;;;10.05;84.27;100645.41;5094159;28;20044;-65
2022/10/06 00:31:42;;;;;;;1.02;1.02;;;;;;;10.01;84.47;100643.66;5094617;28;20040;-65
2022/10/06 00:34:11;;;;;;;1.52;1.42;;;;;;;9.99;84.73;100639.38;5094069;28;20052;-65
2022/10/06 00:36:40;;;;;;;1.02;0.98;;;;;;;9.99;84.20;100639.38;5109821;28;20047;-65
2022/10/06 00:39:09;;;;;;;2.03;1.83;;;;;;;10.00;84.45;100643.66;5094161;28;20101;-65
2022/10/06 00:41:39;;;;;;;0.97;0.87;;;;;;;10.04;84.08;100637.75;5093866;28;20043;-65
2022/10/06 00:44:08;;;;;;;2.17;1.75;;;;;;;10.04;83.96;100642.84;5093910;28;20277;-65
2022/10/06 00:46:42;;;;;;;0.63;0.63;;;;;;;10.00;84.41;100646.19;5092703;28;20051;-65
2022/10/06 00:49:18;;;;;;;0.70;0.70;;;;;;;9.90;84.10;100654.50;5093939;28;20044;-65
2022/10/06 00:51:51;;;;;;;1.95;1.33;;;;;;;9.90;84.12;100650.28;5093779;28;20048;-65
2022/10/06 00:54:20;;;;;;;1.48;1.38;;;;;;;9.94;84.38;100640.97;5092600;28;20508;-65
2022/10/06 00:56:51;;;;;;;1.98;1.85;;;;;;;9.94;84.26;100636.75;5094039;28;20044;-64
2022/10/06 00:59:20;;;;;;;0.50;0.50;;;;;;;9.93;84.62;100647.75;5093774;28;20123;-65
2022/10/06 01:01:56;;;;;;;1.80;1.47;;;;;;;9.92;84.21;100647.75;5093651;28;20490;-65
2022/10/06 01:04:31;;;;;;;1.35;0.88;;;;;;;9.85;84.20;100636.59;5092443;28;20043;-65
2022/10/06 01:07:02;;;;;;;1.50;1.40;;;;;;;9.85;84.63;100645.91;5093941;28;20505;-66
2022/10/06 01:09:31;;;;;;;1.83;1.67;;;;;;;9.84;83.93;100645.06;5098414;28;20059;-66
2022/10/06 01:12:03;;;;;;;1.45;1.35;;;;;;;9.81;83.77;100649.25;5100407;28;20054;-65
2022/10/06 01:14:33;;;;;;;1.13;1.02;;;;;;;9.71;84.12;100648.25;5100335;28;20165;-65
2022/10/06 01:17:06;;;;;;;2.13;1.48;;;;;;;9.70;84.37;100653.28;5100228;28;20044;-66
2022/10/06 01:19:48;;;;;;;1.48;0.95;;;;;;;9.69;84.46;100654.13;5116398;28;20048;-66
2022/10/06 01:22:22;;;;;;;1.33;0.93;;;;;;;9.58;84.05;100650.50;5116427;28;20047;-66
2022/10/06 01:24:53;;;;;;;4.55;1.67;;;;;;;9.50;84.67;100646.97;5099005;28;20044;-65
2022/10/06 01:27:25;;;;;;;1.55;1.42;;;;;;;9.52;84.18;100656.38;5100490;28;20131;-65
2022/10/06 01:29:56;;;;;;;0.90;0.88;;;;;;;9.48;84.12;100653.75;5099328;28;20529;-66
2022/10/06 01:32:30;;;;;;;9.43;2.80;;;;;;;9.41;84.29;100653.59;5116531;28;20056;-65
2022/10/06 01:35:00;;;;;;;0.77;0.77;;;;;;;9.28;83.77;100649.13;5100403;28;20059;-65
2022/10/06 01:37:29;;;;;;;1.73;1.42;;;;;;;9.27;84.25;100639.75;5100064;28;20073;-65
2022/10/06 01:39:59;;;;;;;0.93;0.93;;;;;;;9.27;84.65;100644.84;5100008;28;20062;-65
2022/10/06 01:42:30;;;;;;;1.23;1.13;;;;;;;9.30;84.18;100639.81;5100119;28;20048;-65
2022/10/06 01:45:02;;;;;;;0.77;0.77;;;;;;;9.22;84.34;100640.47;5100331;28;20044;-65
2022/10/06 01:47:31;;;;;;;0.77;0.77;;;;;;;9.16;84.62;100646.31;5098837;28;20043;-65
2022/10/06 01:50:00;;;;;;;0.88;0.88;;;;;;;9.19;84.01;100635.34;5098792;28;20046;-65
2022/10/06 01:52:30;;;;;;;1.33;1.20;;;;;;;9.17;84.78;100637.84;5099185;28;20157;-65
2022/10/06 01:55:00;;;;;;;1.05;0.95;;;;;;;9.16;84.45;100633.59;5098737;28;20039;-65
2022/10/06 01:57:31;;;;;;;0.65;0.65;;;;;;;9.00;84.04;100634.06;5099964;28;20043;-65
2022/10/06 01:59:59;;;;;;;1.15;1.08;;;;;;;9.00;84.26;100634.06;5115660;28;20043;-65
2022/10/06 02:02:30;;;;;;;0.73;0.73;;;;;;;9.04;84.91;100640.97;5098593;28;20036;-65
2022/10/06 02:04:59;;;;;;;1.30;1.20;;;;;;;9.08;85.06;100637.66;5100386;28;20051;-65
2022/10/06 02:07:28;;;;;;;1.23;1.13;;;;;;;9.06;84.07;100638.44;5115619;28;20043;-65
2022/10/06 02:09:56;;;;;;;1.55;1.45;;;;;;;9.06;84.83;100635.91;5099417;28;20574;-65
2022/10/06 02:12:26;;;;;;;0.55;0.55;;;;;;;9.06;84.73;100636.78;5098896;28;20040;-65
2022/10/06 02:14:55;;;;;;;1.05;1.00;;;;;;;9.00;84.87;100638.34;5100018;28;20401;-66
2022/10/06 02:17:24;;;;;;;0.75;0.75;;;;;;;9.04;84.85;100638.44;5098480;28;20536;-65
2022/10/06 02:19:53;;;;;;;0.38;0.38;;;;;;;9.05;84.04;100635.03;5096850;28;20038;-66
2022/10/06 02:22:23;;;;;;;3.13;1.35;;;;;;;9.01;83.65;100640.03;5096844;28;20105;-66
2022/10/06 02:24:51;;;;;;;0.75;0.75;;;;;;;8.87;84.18;100632.13;5095244;28;20040;-66
2022/10/06 02:27:20;;;;;;;0.95;0.88;;;;;;;8.90;84.32;100632.16;5096478;28;20070;-65
2022/10/06 02:29:50;;;;;;;0.75;0.75;;;;;;;8.91;85.07;100638.97;5096422;28;20072;-66
2022/10/06 02:32:19;;;;;;;3.03;1.67;;;;;;;8.95;84.30;100645.84;5095183;28;20058;-66
2022/10/06 02:34:48;;;;;;;1.93;1.17;;;;;;;8.98;84.64;100645.91;5095402;28;20040;-65
2022/10/06 02:37:17;;;;;;;0.50;0.50;;;;;;;8.97;84.45;100644.22;5096124;28;20047;-66
2022/10/06 02:39:46;;;;;;;0.50;0.50;;;;;;;8.95;84.32;100650.09;5095022;28;20557;-66
2022/10/06 02:42:15;;;;;;;0.63;0.60;;;;;;;8.96;84.49;100646.72;5096130;28;20101;-66
2022/10/06 02:44:43;;;;;;;0.63;0.63;;;;;;;8.95;84.67;100660.28;5096103;28;20502;-65
2022/10/06 02:47:14;;;;;;;0.77;0.77;;;;;;;8.94;84.38;100668.75;5129238;27;20032;-65
2022/10/06 02:49:44;;;;;;;1.15;1.05;;;;;;;8.99;84.72;100662.94;5111874;28;20044;-65
2022/10/06 02:52:12;;;;;;;0.50;0.50;;;;;;;9.00;84.62;100659.53;5095928;28;20123;-65
2022/10/06 02:54:42;;;;;;;1.20;1.13;;;;;;;9.01;84.58;100666.38;5096244;28;20076;-66
2022/10/06 02:57:11;;;;;;;1.13;1.02;;;;;;;9.01;85.11;100663.81;5095942;28;20408;-66
2022/10/06 02:59:39;;;;;;;0.47;0.47;;;;;;;9.03;84.86;100668.94;5094874;28;20486;-66
2022/10/06 03:02:08;;;;;;;0.73;0.73;;;;;;;9.02;85.16;100673.16;5094539;28;20044;-66
2022/10/06 03:04:38;;;;;;;0.70;0.70;;;;;;;8.99;85.54;100673.13;5096025;28;20127;-66
2022/10/06 03:07:07;;;;;;;0.85;0.85;;;;;;;8.92;84.15;100671.25;5111453;28;20046;-66
2022/10/06 03:09:37;;;;;;;0.80;0.80;;;;;;;8.94;84.68;100666.19;5095579;28;20117;-66
2022/10/06 03:12:09;;;;;;;0.55;0.55;;;;;;;8.87;83.69;100662.66;5094657;28;20397;-66
2022/10/06 03:14:40;;;;;;;2.35;0.65;;;;;;;8.77;84.05;100665.81;5095826;28;20490;-66
2022/10/06 03:17:10;;;;;;;2.00;1.40;;;;;;;8.68;84.05;100660.53;5094232;28;20044;-66
2022/10/06 03:19:47;;;;;;;0.70;0.70;;;;;;;8.67;84.47;100658.81;5094639;28;20130;-66
2022/10/06 03:22:16;;;;;;;1.10;1.02;;;;;;;8.57;84.66;100654.31;5111454;28;20393;-65
2022/10/06 03:24:52;;;;;;;1.48;1.20;;;;;;;8.54;84.21;100649.19;5094509;28;20097;-65
2022/10/06 03:27:21;;;;;;;0.77;0.77;;;;;;;8.48;83.88;100652.44;5110993;28;20052;-65
2022/10/06 03:29:53;;;;;;;0.60;0.60;;;;;;;8.43;83.92;100645.53;5094368;28;20044;-66
2022/10/06 03:32:24;;;;;;;0.95;0.95;;;;;;;8.36;83.77;100641.97;5110153;28;20089;-66
2022/10/06 03:34:54;;;;;;;1.03;0.93;;;;;;;8.32;83.64;100650.38;5094165;28;20032;-66
2022/10/06 03:37:23;;;;;;;0.50;0.50;;;;;;;8.25;84.09;100652.69;5095728;28;20051;-65
2022/10/06 03:39:52;;;;;;;1.13;1.02;;;;;;;8.22;83.86;100658.56;5093809;28;20060;-66
2022/10/06 03:42:20;;;;;;;0.77;0.73;;;;;;;8.21;84.56;100650.88;5094952;28;20486;-66
2022/10/06 03:44:49;;;;;;;1.98;1.88;;;;;;;8.21;84.46;100651.75;5094873;28;20047;-64
2022/10/06 03:47:18;;;;;;;1.23;1.13;;;;;;;8.25;84.65;100655.25;5093684;28;20043;-66
2022/10/06 03:49:47;;;;;;;1.75;1.65;;;;;;;8.27;84.54;100656.16;5095096;28;20065;-65
2022/10/06 03:52:18;;;;;;;2.05;1.85;;;;;;;8.30;84.63;100656.25;5094769;28;20044;-66
2022/10/06 03:54:54;;;;;;;1.48;1.38;;;;;;;8.41;84.66;100660.75;5094756;28;20040;-65
2022/10/06 03:57:23;;;;;;;3.13;2.50;;;;;;;8.47;84.84;100665.97;5110793;28;20040;-66
2022/10/06 03:59:52;;;;;;;2.63;2.08;;;;;;;8.53;84.96;100657.63;5093637;28;20280;-66
2022/10/06 04:02:20;;;;;;;1.02;0.95;;;;;;;8.60;84.60;100662.03;5110576;28;20505;-66
2022/10/06 04:04:49;;;;;;;1.95;1.55;;;;;;;8.61;85.40;100664.59;5110299;28;20040;-66
2022/10/06 04:07:19;;;;;;;1.55;1.45;;;;;;;8.64;84.72;100668.91;5094439;28;20070;-66
2022/10/06 04:09:48;;;;;;;2.97;1.23;;;;;;;8.64;85.62;100668.91;5093338;28;20433;-66
2022/10/06 04:12:18;;;;;;;2.30;2.10;;;;;;;8.66;85.22;100675.75;5094449;28;20086;-66
2022/10/06 04:14:46;;;;;;;1.45;1.35;;;;;;;8.70;84.96;100669.94;5094313;28;20052;-66
2022/10/06 04:17:15;;;;;;;2.17;1.60;;;;;;;8.67;84.82;100671.53;5093091;28;20036;-65
2022/10/06 04:19:45;;;;;;;9.38;2.10;;;;;;;8.66;84.91;100669.81;5092862;28;20081;-66
2022/10/06 04:22:14;;;;;;;1.73;1.63;;;;;;;8.68;84.52;100675.81;5095419;28;20048;-66
2022/10/06 04:24:44;;;;;;;1.67;1.57;;;;;;;8.70;84.88;100674.16;5109957;28;20036;-66
2022/10/06 04:29:57;;;;;;;1.00;0.95;;;;;;;8.70;85.04;100669.06;5094429;28;20229;-66
2022/10/06 04:32:26;;;;;;;3.17;1.42;;;;;;;8.67;85.65;100669.84;5094134;28;20075;-66
2022/10/06 04:34:55;;;;;;;0.80;0.80;;;;;;;8.72;85.58;100672.50;5094299;28;20444;-66
2022/10/06 04:37:27;;;;;;;1.38;1.27;;;;;;;8.77;85.65;100673.47;5094365;28;20051;-65
2022/10/06 04:40:00;;;;;;;1.00;0.90;;;;;;;8.81;85.06;100667.59;5094136;28;20371;-66
2022/10/06 04:42:30;;;;;;;2.78;1.85;;;;;;;8.81;85.32;100670.16;5093967;28;20545;-66
2022/10/06 04:45:08;;;;;;;1.38;1.02;;;;;;;8.76;85.47;100661.56;5093654;28;20135;-65
2022/10/06 04:47:39;;;;;;;0.98;0.80;;;;;;;8.84;85.12;100671.91;5094069;28;20097;-65
2022/10/06 04:50:08;;;;;;;1.48;1.33;;;;;;;8.87;84.44;100666.88;5092461;28;20528;-65
2022/10/06 04:52:40;;;;;;;0.85;0.85;;;;;;;8.89;84.57;100671.19;5094128;28;20138;-66
2022/10/06 04:55:11;;;;;;;1.80;1.48;;;;;;;8.90;85.54;100677.97;5094052;28;20040;-66
2022/10/06 04:57:40;;;;;;;2.10;1.95;;;;;;;8.90;85.48;100683.06;5092593;28;20044;-66
2022/10/06 05:02:51;;;;;;;1.33;1.23;;;;;;;8.95;85.00;100686.59;5093652;28;20136;-66
2022/10/06 05:05:19;;;;;;;10.55;1.85;;;;;;;8.98;85.14;100686.66;5092696;28;20379;-66
2022/10/06 05:07:50;;;;;;;9.32;2.60;;;;;;;8.99;85.13;100685.84;5093586;28;20055;-66
2022/10/06 05:10:20;;;;;;;0.55;0.35;;;;;;;9.02;85.02;100692.69;5093305;28;20056;-66
2022/10/06 05:12:49;;;;;;;3.30;2.17;;;;;;;9.07;84.75;100691.94;5092669;28;20055;-66
2022/10/06 05:15:19;;;;;;;1.15;0.95;;;;;;;9.13;85.07;100694.63;5094167;28;20052;-66
2022/10/06 05:17:48;;;;;;;0.95;0.95;;;;;;;9.20;85.63;100693.94;5092693;28;20048;-66
2022/10/06 05:20:16;;;;;;;1.00;0.90;;;;;;;9.27;84.96;100695.78;5093434;28;20051;-66
2022/10/06 05:22:46;;;;;;;0.47;0.47;;;;;;;9.33;84.96;100690.78;5093431;28;20044;-66
2022/10/06 05:25:15;;;;;;;1.25;0.95;;;;;;;9.35;85.39;100699.34;5092261;28;20452;-66
2022/10/06 05:27:45;;;;;;;2.63;1.65;;;;;;;9.41;86.00;100699.47;5092242;28;20033;-66
2022/10/06 05:30:14;;;;;;;2.22;1.83;;;;;;;9.48;85.88;100709.78;5093795;28;20074;-66
2022/10/06 05:32:49;;;;;;;17.63;2.47;;;;;;;9.52;85.60;100703.91;5093326;28;20058;-66
2022/10/06 05:35:20;;;;;;;0.90;0.90;;;;;;;9.59;86.23;100708.31;5092559;28;20138;-66
2022/10/06 05:37:49;;;;;;;1.67;1.58;;;;;;;9.65;86.44;100713.50;5093349;28;20055;-66
2022/10/06 05:40:17;;;;;;;1.40;1.30;;;;;;;9.72;86.53;100715.34;5092363;28;20109;-66
2022/10/06 05:42:48;;;;;;;1.63;1.52;;;;;;;9.79;86.26;100717.22;5092093;28;20567;-66
2022/10/06 05:45:16;;;;;;;5.40;2.38;;;;;;;9.86;86.09;100721.59;5093616;28;20596;-66
2022/10/06 05:47:45;;;;;;;4.10;3.08;;;;;;;9.91;86.23;100722.53;5092082;28;20040;-66
2022/10/06 05:50:15;;;;;;;;;;;;;;;9.95;86.39;100724.31;5093891;28;20044;-66
2022/10/06 05:52:43;;;;;;;17.13;5.05;;;;;;;9.99;86.38;100720.97;5092000;28;20374;-66
2022/10/06 05:55:12;;;;;;;0.85;0.82;;;;;;;10.07;86.25;100732.19;5109452;28;20494;-66
2022/10/06 05:57:41;;;;;;;1.40;1.33;;;;;;;10.15;86.11;100732.34;5095867;28;20126;-66
2022/10/06 06:00:12;;;;;;;1.17;1.08;;;;;;;10.22;86.90;100740.13;5095704;28;20036;-66
2022/10/06 06:02:45;;;;;;;3.17;0.70;;;;;;;10.25;86.60;100737.63;5129808;27;20058;-66
2022/10/06 06:05:14;;;;;;;2.67;1.95;;;;;;;10.31;85.93;100734.34;5096893;28;20059;-66
2022/10/06 06:07:43;;;;;;;1.60;1.50;;;;;;;10.38;86.49;100743.81;5112791;28;20039;-66
2022/10/06 06:10:12;;;;;;;0.50;0.50;;;;;;;10.40;86.40;100748.13;5096770;28;20036;-66
2022/10/06 06:12:40;;;;;;;2.58;2.05;;;;;;;10.43;85.80;100744.75;5095465;28;20134;-66
2022/10/06 06:18:12;;;;;;;0.70;0.70;;;;;;;10.51;86.20;100738.94;5096940;28;20055;-66
2022/10/06 06:20:41;;;;;;;0.80;0.80;;;;;;;10.56;86.16;100747.53;5112639;28;20036;-66
2022/10/06 06:23:10;;;;;;;0.80;0.80;;;;;;;10.62;85.71;100751.88;5113006;28;20555;-66
2022/10/06 06:25:38;;;;;;;1.63;1.52;;;;;;;10.68;85.79;100750.28;5096688;28;20428;-66
2022/10/06 06:28:07;;;;;;;2.50;1.48;;;;;;;10.74;86.06;100755.50;5095343;28;20040;-66
2022/10/06 06:30:37;;;;;;;2.08;1.77;;;;;;;10.84;86.03;100763.28;5095123;28;20052;-66
2022/10/06 06:33:06;;;;;;;1.35;1.25;;;;;;;10.84;86.08;100755.63;5112093;28;20134;-65
2022/10/06 06:35:37;;;;;;;1.25;1.13;;;;;;;10.96;85.90;100766.03;5096602;28;20437;-65
2022/10/06 06:38:10;;;;;;;1.65;1.38;;;;;;;11.03;85.90;100775.50;5096204;28;20131;-67
2022/10/06 06:40:40;;;;;;;0.93;0.93;;;;;;;11.09;85.88;100778.13;5078134;28;20066;-66
2022/10/06 06:43:12;;;;;;;0.40;0.40;;;;;;;11.18;85.92;100781.69;5096347;28;20047;-66
2022/10/06 06:46:04;;;;;;;0.60;0.60;;;;;;;11.28;85.96;100792.91;5096324;28;20409;-67
2022/10/06 06:48:48;;;;;;;1.75;1.10;;;;;;;11.40;85.88;100787.97;5094073;28;20032;-66
2022/10/06 06:51:18;;;;;;;1.52;1.40;;;;;;;11.50;85.81;100789.81;5086772;28;20083;-66
2022/10/06 06:53:46;;;;;;;1.52;1.17;;;;;;;11.61;85.63;100787.41;5094882;28;20119;-67
2022/10/06 06:56:16;;;;;;;5.38;1.83;;;;;;;11.71;85.55;100784.16;5096343;28;20454;-67
2022/10/06 06:58:46;;;;;;;0.83;0.77;;;;;;;11.74;85.23;100789.28;5111884;28;20093;-67
2022/10/06 07:01:18;;;;;;;1.35;1.13;;;;;;;11.75;84.98;100786.78;5094731;28;20048;-66
2022/10/06 07:03:52;;;;;;;0.85;0.85;;;;;;;11.80;84.74;100785.13;5094459;28;20044;-66
2022/10/06 07:06:31;;;;;;;0.90;0.90;;;;;;;11.86;84.31;100792.88;5086301;28;20565;-66
2022/10/06 07:09:02;;;;;;;1.02;0.93;;;;;;;11.91;84.27;100798.91;5095261;28;20562;-67
2022/10/06 07:11:33;;;;;;;1.38;1.25;;;;;;;11.98;84.19;100795.56;5094073;28;20131;-67
2022/10/06 07:14:08;;;;;;;1.33;1.23;;;;;;;12.05;83.91;100791.38;5088199;28;20048;-68
2022/10/06 07:27:16;;;;;;;0.50;0.50;;;;;;;12.30;82.69;100802.72;5073911;28;20042;-66
2022/10/06 07:29:45;;;;;;;0.40;0.40;;;;;;;12.33;82.55;100807.91;5074136;28;20124;-66
2022/10/06 07:32:20;;;;;;;11.25;3.10;;;;;;;12.39;82.43;100802.81;5073667;28;20503;-66
2022/10/06 07:34:49;;;;;;;1.38;1.27;;;;;;;12.45;82.14;100802.91;5073736;28;20048;-66
2022/10/06 07:37:19;;;;;;;1.13;1.05;;;;;;;12.48;82.12;100808.03;5075002;28;20049;-67
2022/10/06 07:39:48;;;;;;;0.90;0.90;;;;;;;12.55;81.96;100805.53;5084078;28;20055;-66
2022/10/06 07:42:18;;;;;;;;;;;;;;;12.59;81.83;100812.44;5081374;28;20399;-67
2022/10/06 07:45:37;;;;;;;1.33;1.23;;;;;;;12.62;81.51;100812.44;5083473;28;19974;-66
2022/10/06 07:47:40;;;;;;;1.73;1.17;;;;;;;12.69;81.32;100815.94;5088421;28;20082;-66
2022/10/06 07:50:11;;;;;;;1.83;1.02;;;;;;;12.71;81.06;100816.81;5127675;27;20046;-66
2022/10/06 07:52:40;;;;;;;0.63;0.63;;;;;;;12.71;81.18;100812.53;5093987;28;20044;-66
2022/10/06 07:55:10;;;;;;;;;;;;;;;12.74;81.22;100816.84;5084230;28;20059;-66
2022/10/06 07:57:59;;;;;;;0.70;0.70;;;;;;;12.75;80.85;100814.28;5088819;28;19927;-67
2022/10/06 08:00:28;;;;;;;1.08;1.00;;;;;;;12.82;81.07;100804.06;5087508;28;20064;-66
2022/10/06 08:02:58;;;;;;;1.57;1.00;;;;;;;12.83;80.73;100801.53;5085162;28;20036;-67
2022/10/06 08:05:27;;;;;;;1.58;1.48;;;;;;;12.84;80.83;100810.91;5094616;28;20272;-66
2022/10/06 08:07:57;;;;;;;1.58;1.27;;;;;;;12.84;80.81;100810.91;5094393;28;20046;-66
2022/10/06 08:10:26;;;;;;;1.73;1.40;;;;;;;12.86;81.15;100808.38;5094166;28;20090;-66
2022/10/06 08:12:54;;;;;;;1.02;1.00;;;;;;;12.87;81.26;100815.22;5094454;28;20056;-67
2022/10/06 08:15:23;;;;;;;0.77;0.77;;;;;;;12.90;81.32;100818.66;5094350;28;20493;-66
2022/10/06 08:17:52;;;;;;;3.33;1.08;;;;;;;12.95;81.10;100818.72;5092028;28;20123;-66
2022/10/06 08:20:23;;;;;;;3.15;1.45;;;;;;;13.00;81.05;100814.47;5094172;28;20040;-66
2022/10/06 08:22:51;;;;;;;3.40;2.70;;;;;;;13.06;81.19;100823.09;5094013;28;20139;-67
2022/10/06 08:25:20;;;;;;;2.60;0.90;;;;;;;13.27;81.42;100820.69;5094472;28;20062;-66
2022/10/06 08:27:49;;;;;;;0.63;0.63;;;;;;;13.47;81.04;100827.63;5094409;28;20040;-66
2022/10/06 08:30:26;;;;;;;0.98;0.80;;;;;;;13.66;80.55;100826.88;5094199;28;20273;-66
2022/10/06 08:32:57;;;;;;;0.63;0.63;;;;;;;13.90;80.28;100824.44;5094022;28;20495;-66
2022/10/06 08:35:27;;;;;;;0.80;0.80;;;;;;;14.06;79.59;100831.34;5093126;28;20081;-66
2022/10/06 08:37:56;;;;;;;0.63;0.63;;;;;;;14.25;78.96;100822.88;5093979;28;20398;-66
2022/10/06 08:40:26;;;;;;;1.40;1.00;;;;;;;14.43;78.80;100822.94;5093875;28;20050;-66
2022/10/06 08:42:57;;;;;;;0.40;0.40;;;;;;;14.59;77.28;100824.66;5093975;28;20131;-66
2022/10/06 08:45:34;;;;;;;1.10;1.00;;;;;;;14.71;77.22;100819.53;5092452;28;20127;-67
2022/10/06 08:48:12;;;;;;;1.25;1.00;;;;;;;14.90;76.61;100825.53;5089914;28;20048;-67
2022/10/06 08:50:52;;;;;;;0.98;0.98;;;;;;;15.12;75.89;100837.53;5078404;28;20486;-67
2022/10/06 08:53:29;;;;;;;;;;;;;;;15.26;75.37;100840.13;5092192;28;20040;-69
2022/10/06 08:56:04;;;;;;;0.77;0.77;;;;;;;15.50;74.77;100834.94;5086512;28;19967;-66
2022/10/06 08:58:46;;;;;;;1.48;1.38;;;;;;;15.62;73.83;100834.91;5089979;28;20053;-67
2022/10/06 09:01:18;;;;;;;0.93;0.80;;;;;;;15.73;73.42;100838.31;5084226;28;20083;-66
2022/10/06 09:03:50;;;;;;;1.48;0.80;;;;;;;15.82;72.63;100833.13;5093875;28;20036;-66
2022/10/06 09:06:35;;;;;;;1.58;1.38;;;;;;;16.03;72.23;100833.03;5076794;28;20051;-66
2022/10/06 09:09:14;;;;;;;0.90;0.85;;;;;;;16.12;71.59;100839.03;5090247;28;20059;-66
2022/10/06 09:11:51;;;;;;;3.22;1.15;;;;;;;16.15;70.76;100841.59;5093490;28;20060;-66
2022/10/06 09:14:25;;;;;;;1.25;1.15;;;;;;;16.25;71.00;100843.25;5092445;28;20044;-66
2022/10/06 09:16:59;;;;;;;0.68;0.68;;;;;;;16.35;71.19;100837.19;5093752;28;20134;-67
2022/10/06 09:19:40;;;;;;;1.13;0.98;;;;;;;16.47;70.08;100834.53;5093737;28;20486;-67
2022/10/06 09:22:18;;;;;;;0.50;0.50;;;;;;;16.61;69.84;100820.72;5092327;28;20048;-66
2022/10/06 09:24:49;;;;;;;1.70;1.30;;;;;;;16.73;68.78;100827.50;5093530;28;20067;-66
2022/10/06 09:27:21;;;;;;;0.52;0.52;;;;;;;16.79;67.67;100826.63;5093849;28;20113;-66
2022/10/06 09:29:51;;;;;;;0.50;0.50;;;;;;;16.81;66.37;100830.91;5095089;28;20071;-66
2022/10/06 09:32:23;;;;;;;0.82;0.82;;;;;;;16.95;65.50;100820.47;5096316;28;20094;-67
2022/10/06 09:34:54;;;;;;;0.88;0.80;;;;;;;17.15;65.51;100834.06;5097564;28;20525;-67
2022/10/06 09:37:24;;;;;;;1.17;0.93;;;;;;;17.22;65.17;100831.41;5091724;28;20047;-67
2022/10/06 09:39:54;;;;;;;2.85;1.13;;;;;;;17.28;64.95;100833.06;5097736;28;20086;-66
2022/10/06 09:42:27;;;;;;;1.15;1.05;;;;;;;17.36;64.16;100832.13;5097287;28;20052;-66
2022/10/06 09:45:02;;;;;;;0.65;0.65;;;;;;;17.42;63.71;100829.47;5097269;28;20109;-67
2022/10/06 09:47:40;;;;;;;1.85;1.75;;;;;;;17.53;63.51;100828.53;5096291;28;20425;-66
2022/10/06 09:50:20;;;;;;;1.30;1.20;;;;;;;17.60;63.19;100832.78;5096904;28;20047;-67
2022/10/06 09:53:17;;;;;;;1.90;0.80;;;;;;;17.67;62.48;100831.84;5097165;28;20093;-66
2022/10/06 09:55:53;;;;;;;1.13;0.95;;;;;;;17.85;63.04;100832.47;5096850;28;20489;-66
2022/10/06 09:58:31;;;;;;;7.78;0.80;;;;;;;18.04;63.62;100838.28;5097616;28;20040;-67
2022/10/06 10:01:02;;;;;;;1.63;1.52;;;;;;;18.07;62.88;100833.06;5095926;28;20048;-67
2022/10/06 10:03:48;;;;;;;6.95;1.05;;;;;;;18.05;62.17;100839.97;5096823;28;20085;-67
2022/10/06 10:06:39;;;;;;;1.05;0.85;;;;;;;18.18;62.11;100841.53;5096936;28;20036;-67
2022/10/06 10:09:23;;;;;;;1.00;0.70;;;;;;;18.35;62.16;100839.59;5090412;28;20040;-67
2022/10/06 10:14:50;;;;;;;0.60;0.60;;;;;;;18.57;62.58;100825.50;5076826;28;20113;-67
2022/10/06 10:17:22;;;;;;;0.52;0.50;;;;;;;18.61;62.32;100827.19;5088854;28;20511;-67
2022/10/06 10:19:53;;;;;;;0.88;0.82;;;;;;;18.74;62.35;100831.28;5096720;28;20052;-67
2022/10/06 10:22:27;;;;;;;1.85;1.10;;;;;;;18.90;61.93;100828.44;5096780;28;20044;-67
2022/10/06 10:25:08;;;;;;;0.73;0.73;;;;;;;18.92;61.89;100830.13;5097060;28;20055;-67
2022/10/06 10:27:50;;;;;;;1.00;0.90;;;;;;;18.98;61.62;100839.53;5096539;28;20061;-67
2022/10/06 10:30:19;;;;;;;2.75;1.70;;;;;;;19.12;61.67;100841.00;5096400;28;20055;-67
2022/10/06 10:33:01;;;;;;;1.65;0.90;;;;;;;19.16;60.92;100834.03;5096368;28;20036;-67
2022/10/06 10:35:33;;;;;;;1.08;0.90;;;;;;;19.21;60.60;100835.69;5096570;28;20555;-66
2022/10/06 10:38:07;;;;;;;0.55;0.55;;;;;;;19.41;60.67;100837.94;5096507;28;20508;-67
2022/10/06 10:40:49;;;;;;;1.40;1.20;;;;;;;19.45;60.25;100831.81;5095699;28;20053;-67
2022/10/06 10:43:29;;;;;;;0.80;0.80;;;;;;;19.48;60.23;100829.19;5096057;28;20486;-67
2022/10/06 10:46:06;;;;;;;0.50;0.50;;;;;;;19.55;59.88;100825.59;5096144;28;20044;-67
2022/10/06 10:48:43;;;;;;;2.75;1.33;;;;;;;19.73;60.20;100825.22;5096080;28;20052;-67
2022/10/06 10:51:16;;;;;;;0.50;0.50;;;;;;;19.85;60.05;100830.16;5089403;28;20074;-68
2022/10/06 10:53:50;;;;;;;0.43;0.43;;;;;;;19.93;59.81;100830.88;5081887;28;20059;-67
2022/10/06 10:56:21;;;;;;;1.60;0.88;;;;;;;20.02;59.97;100817.72;5087286;28;20043;-67
2022/10/06 10:58:56;;;;;;;1.13;1.02;;;;;;;20.11;59.96;100816.66;5096135;28;20394;-68
2022/10/06 11:01:35;;;;;;;1.05;1.02;;;;;;;20.09;59.56;100813.25;5095571;28;20087;-67
2022/10/06 11:04:04;;;;;;;2.55;1.35;;;;;;;20.03;59.32;100798.66;5096061;28;20047;-67
2022/10/06 11:06:53;;;;;;;0.80;0.80;;;;;;;20.13;59.54;100814.06;5096073;28;20040;-67
2022/10/06 11:09:29;;;;;;;0.80;0.80;;;;;;;20.31;59.60;100821.44;5096219;28;20389;-67
2022/10/06 11:12:14;;;;;;;0.80;0.80;;;;;;;20.41;59.52;100818.63;5095385;28;20497;-67
2022/10/06 11:14:53;;;;;;;1.08;0.98;;;;;;;20.51;59.60;100816.69;5092224;28;20040;-67
2022/10/06 11:17:43;;;;;;;1.00;0.95;;;;;;;20.46;58.98;100813.34;5075260;28;20044;-66
2022/10/06 11:20:33;;;;;;;0.85;0.85;;;;;;;20.44;58.54;100810.75;5075469;28;20068;-66
2022/10/06 11:23:20;;;;;;;0.80;0.80;;;;;;;20.63;59.29;100806.88;5075310;28;20506;-66
2022/10/06 11:25:58;;;;;;;0.98;0.98;;;;;;;20.72;58.32;100810.97;5075047;28;20056;-66
2022/10/06 11:28:38;;;;;;;0.90;0.63;;;;;;;20.69;58.05;100803.25;5075359;28;20465;-66
2022/10/06 11:31:20;;;;;;;0.80;0.80;;;;;;;20.75;57.96;100803.13;5093190;28;20394;-66
2022/10/06 11:33:53;;;;;;;1.88;1.23;;;;;;;20.79;58.04;100801.28;5095727;28;20390;-67
2022/10/06 11:36:30;;;;;;;0.98;0.88;;;;;;;20.93;57.87;100799.19;5095068;28;20093;-67
2022/10/06 11:39:07;;;;;;;1.02;0.93;;;;;;;21.05;57.93;100806.72;5093749;28;20085;-67
2022/10/06 11:41:42;;;;;;;1.13;1.05;;;;;;;21.08;58.02;100798.84;5095063;28;20482;-67
2022/10/06 11:44:21;;;;;;;0.60;0.60;;;;;;;21.07;58.10;100795.41;5094962;28;20044;-67
2022/10/06 11:46:56;;;;;;;1.77;1.30;;;;;;;21.02;57.59;100789.44;5095497;28;20044;-67
2022/10/06 11:49:38;;;;;;;1.88;0.98;;;;;;;20.98;57.86;100793.00;5092567;28;20040;-67
2022/10/06 11:52:28;;;;;;;0.60;0.60;;;;;;;21.09;57.99;100790.19;5094400;28;20052;-66
2022/10/06 11:55:09;;;;;;;1.45;0.85;;;;;;;21.17;57.50;100783.88;5094412;28;20381;-67
2022/10/06 11:58:19;;;;;;;1.92;1.67;;;;;;;21.26;57.57;100788.84;5094802;28;20044;-67
2022/10/06 12:01:07;;;;;;;2.60;1.05;;;;;;;21.22;57.46;100786.38;5094767;28;20478;-67
2022/10/06 12:04:05;;;;;;;1.38;0.95;;;;;;;21.26;57.89;100794.03;5094117;28;20519;-69
2022/10/06 12:06:53;;;;;;;0.50;0.50;;;;;;;21.27;57.42;100790.56;5094629;28;20090;-67
2022/10/06 12:09:47;;;;;;;4.85;2.53;;;;;;;21.13;57.00;100760.63;5094476;28;20048;-67
2022/10/06 12:12:43;;;;;;;1.02;0.73;;;;;;;21.53;57.08;100791.56;5094240;28;20044;-67
2022/10/06 12:15:45;;;;;;;0.90;0.90;;;;;;;21.63;56.75;100788.69;5092124;28;20041;-67
2022/10/06 12:18:45;;;;;;;1.70;1.35;;;;;;;21.63;56.60;100791.28;5094170;28;20040;-67